YPKG Airport Information

Runway Information
Runway 11 Length 6562 ft width 148 ft
Elevation 1203 ft Threshold 0 ft Heading 110
Runway 29 Length 6562 ft Width 148 ft
Elevation 1147 ft Threshold 0 ft Heading 290
Runway 18 Length 3936 ft width 59 ft
Elevation 1166 ft Threshold 0 ft Heading 185
Runway 36 Length 3936 ft Width 59 ft
Elevation 1187 ft Threshold 0 ft Heading 5
Airport Frequencies
Type CTAF Name CTAF Frequency 126.6 MHZ
Type FSS Name MELBOURNE Frequency 122.1 MHZ
Type UNIC Name UNICOM AIR Frequency 126.6 MHZ
Airport Navaids
Type VOR-DME Name Kalgoorlie Frequency 114100 KHZ
Type NDB Name Kalgoorlie Frequency 287 KHZ
Airport Weather Information & NOTAM
ADDS - METARS form results

(1440 UTC 24 July 2021)
Data provider http://aviationweather.gov/metar/data/
 
METAR text: YPKG 241430Z AUTO 31004KT 9999 // OVC038 10/06 Q1021 RF00.0/000.0
Conditions at: YPKG (KALGOORLIE/BOULD, AU) observed 1430 UTC 24 July 2021
Temperature: 10.0°C (50°F)
Dewpoint: 6.0°C (43°F) [RH = 76%]
Pressure (altimeter): 30.15 inches Hg (1021.0 mb)
Winds: from the NW (310 degrees) at 5 MPH (4 knots; 2.1 m/s)
Visibility: 6 or more miles (10+ km)
Ceiling: 3800 feet AGL
Clouds: overcast cloud deck at 3800 feet AGL
Weather: no significant weather observed at this time

METAR text: YPKG 241400Z AUTO 32004KT 9999 // OVC038 09/06 Q1021
Conditions at: YPKG (KALGOORLIE/BOULD, AU) observed 1400 UTC 24 July 2021
Temperature: 9.0°C (48°F)
Dewpoint: 6.0°C (43°F) [RH = 81%]
Pressure (altimeter): 30.15 inches Hg (1021.0 mb)
Winds: from the NW (320 degrees) at 5 MPH (4 knots; 2.1 m/s)
Visibility: 6 or more miles (10+ km)
Ceiling: 3800 feet AGL
Clouds: overcast cloud deck at 3800 feet AGL
Weather: no significant weather observed at this time

Forecast for: YPKG (KALGOORLIE/BOULD, AU)
Text: TAF YPKG 241124Z 2412/2512 25010KT 9999 SCT045
Forecast period: 1200 to 1300 UTC 24 July 2021
Forecast type: FROM: standard forecast or significant change
Winds: from the WSW (250 degrees) at 12 MPH (10 knots; 5.1 m/s)
Visibility: 6 or more miles (10+ km)
Ceiling: at least 12,000 feet AGL
Clouds: scattered clouds at 4500 feet AGL
Weather: no significant weather forecast for this period
Text: FM241300 29007KT 9999 SCT040
Forecast period: 1300 UTC 24 July 2021 to 1200 UTC 25 July 2021
Forecast type: FROM: standard forecast or significant change
Winds: from the WNW (290 degrees) at 8 MPH (7 knots; 3.6 m/s)
Visibility: 6 or more miles (10+ km)
Ceiling: at least 12,000 feet AGL
Clouds: scattered clouds at 4000 feet AGL
Weather: no significant weather forecast for this period